Time;durP1;ratioP1;P1;durP2;ratioP2;P2;SDS_P1;SDS_P2;PMS_P1;PMS_P2;Temp;Humidity;BMP_temperature;BMP_pressure;BME280_temperature;BME280_humidity;BME280_pressure;Samples;Min_cycle;Max_cycle;Signal;HPM_P1;HPM_P2
2022/01/25 00:08:38;;;;;;;8.65;7.20;;;;;;;;;;5048443;27;81862;-62
2022/01/25 00:32:03;;;;;;;10.88;6.80;;;;;;;;;;5064692;27;83404;-62
2022/01/25 00:34:31;;;;;;;12.68;6.15;;;;;;;;;;5065835;27;84661;-63
2022/01/25 00:36:58;;;;;;;11.65;7.47;;;;;;;;;;5065275;27;81841;-63
2022/01/25 00:39:25;;;;;;;9.00;6.97;;;;;;;;;;5065027;27;82366;-62
2022/01/25 00:41:52;;;;;;;7.80;6.43;;;;;;;;;;5060969;27;84149;-63
2022/01/25 00:44:19;;;;;;;9.60;7.18;;;;;;;;;;5066441;27;84365;-62
2022/01/25 00:46:46;;;;;;;10.65;7.65;;;;;;;;;;5066825;27;82127;-62
2022/01/25 00:49:26;;;;;;;9.23;7.60;;;;;;;;;;5066604;27;81498;-63
2022/01/25 00:56:50;;;;;;;8.40;6.40;;;;;;;;;;5064941;27;82807;-62
2022/01/25 00:59:22;;;;;;;8.13;6.43;;;;;;;;;;5048023;27;81775;-63
2022/01/25 01:01:52;;;;;;;8.20;6.65;;;;;;;;;;5065258;27;82462;-62
2022/01/25 01:04:19;;;;;;;10.38;6.38;;;;;;;;;;5066453;27;82421;-62
2022/01/25 01:06:47;;;;;;;8.50;6.65;;;;;;;;;;5066471;27;81965;-62
2022/01/25 01:09:16;;;;;;;7.95;6.13;;;;;;;;;;5066613;27;81929;-63
2022/01/25 01:11:57;;;;;;;9.13;7.10;;;;;;;;;;5064547;27;83752;-65
2022/01/25 01:31:09;;;;;;;7.82;6.22;;;;;;;;;;5005677;28;81953;-63
2022/01/25 01:44:27;;;;;;;8.40;6.88;;;;;;;;;;5034091;27;84030;-63
2022/01/25 01:47:08;;;;;;;8.35;6.35;;;;;;;;;;5064782;27;82369;-62
2022/01/25 01:49:44;;;;;;;9.32;6.80;;;;;;;;;;5064504;27;82677;-62
2022/01/25 01:52:12;;;;;;;10.57;6.88;;;;;;;;;;5065831;27;81772;-63
2022/01/25 01:54:40;;;;;;;8.95;6.68;;;;;;;;;;5065674;27;82847;-62
2022/01/25 01:57:07;;;;;;;8.38;7.10;;;;;;;;;;5065226;27;82507;-62
2022/01/25 01:59:34;;;;;;;9.45;7.03;;;;;;;;;;5065793;27;82401;-62
2022/01/25 02:02:02;;;;;;;12.18;6.82;;;;;;;;;;5047385;27;82320;-62
2022/01/25 02:04:30;;;;;;;8.02;7.20;;;;;;;;;;5065694;27;83082;-62
2022/01/25 02:06:57;;;;;;;8.82;6.97;;;;;;;;;;5066016;27;82465;-62
2022/01/25 02:09:24;;;;;;;8.88;5.88;;;;;;;;;;5065595;27;81953;-63
2022/01/25 02:11:51;;;;;;;8.85;6.45;;;;;;;;;;5060229;27;81972;-62
2022/01/25 02:14:18;;;;;;;8.85;6.55;;;;;;;;;;5058114;27;85173;-62
2022/01/25 02:24:46;;;;;;;8.10;6.43;;;;;;;;;;5057897;27;81868;-62
2022/01/25 02:27:13;;;;;;;7.20;5.03;;;;;;;;;;5063728;27;83781;-62
2022/01/25 02:29:40;;;;;;;7.20;5.70;;;;;;;;;;5064412;27;82393;-63
2022/01/25 02:32:09;;;;;;;7.72;6.28;;;;;;;;;;5065518;27;81177;-62
2022/01/25 02:34:36;;;;;;;8.07;6.18;;;;;;;;;;5063776;27;82158;-63
2022/01/25 02:37:08;;;;;;;8.52;6.43;;;;;;;;;;5064936;27;82402;-63
2022/01/25 02:39:42;;;;;;;9.45;6.30;;;;;;;;;;5064605;27;82753;-64
2022/01/25 02:42:14;;;;;;;7.90;6.45;;;;;;;;;;5064606;27;82473;-63
2022/01/25 02:44:43;;;;;;;9.57;7.03;;;;;;;;;;5063932;27;82273;-62
2022/01/25 02:49:57;;;;;;;9.52;7.18;;;;;;;;;;5063831;27;81857;-63
2022/01/25 02:52:24;;;;;;;7.05;6.13;;;;;;;;;;5064644;27;81947;-63
2022/01/25 02:54:51;;;;;;;7.45;6.07;;;;;;;;;;5063551;27;83093;-63
2022/01/25 02:57:18;;;;;;;7.93;6.28;;;;;;;;;;5065244;27;82843;-62
2022/01/25 02:59:45;;;;;;;8.70;6.97;;;;;;;;;;5064278;27;81810;-62
2022/01/25 03:02:12;;;;;;;8.15;6.22;;;;;;;;;;5064890;27;82181;-62
2022/01/25 03:04:39;;;;;;;10.20;6.53;;;;;;;;;;5063881;27;83715;-63
2022/01/25 03:07:08;;;;;;;8.48;6.13;;;;;;;;;;5063357;27;84676;-63
2022/01/25 03:09:36;;;;;;;8.65;6.30;;;;;;;;;;5063112;27;81822;-62
2022/01/25 03:12:06;;;;;;;7.82;6.95;;;;;;;;;;5063711;27;82014;-62
2022/01/25 03:14:36;;;;;;;9.68;6.63;;;;;;;;;;5047170;27;82564;-62
2022/01/25 03:17:08;;;;;;;7.43;6.22;;;;;;;;;;5063295;27;83892;-63
2022/01/25 03:22:16;;;;;;;9.02;6.82;;;;;;;;;;5064796;27;81173;-62
2022/01/25 03:24:43;;;;;;;10.35;6.93;;;;;;;;;;5062694;27;82581;-62
2022/01/25 03:27:10;;;;;;;7.90;6.55;;;;;;;;;;5064089;27;82055;-62
2022/01/25 03:29:37;;;;;;;10.40;7.40;;;;;;;;;;5062861;27;83019;-63
2022/01/25 03:32:05;;;;;;;8.40;6.80;;;;;;;;;;5046087;27;82259;-63
2022/01/25 03:34:33;;;;;;;8.10;6.13;;;;;;;;;;5046679;27;83938;-62
2022/01/25 03:37:00;;;;;;;7.60;5.63;;;;;;;;;;5064447;27;82512;-63
2022/01/25 03:39:27;;;;;;;9.05;6.63;;;;;;;;;;5063916;27;82148;-63
2022/01/25 03:41:54;;;;;;;15.27;6.75;;;;;;;;;;5066923;27;82359;-63
2022/01/25 03:44:21;;;;;;;8.82;6.63;;;;;;;;;;5066281;27;82169;-62
2022/01/25 03:47:00;;;;;;;8.57;6.03;;;;;;;;;;5068360;27;84266;-63
2022/01/25 03:52:13;;;;;;;9.50;7.88;;;;;;;;;;5052598;27;81980;-62
2022/01/25 03:54:40;;;;;;;12.10;7.53;;;;;;;;;;5066606;27;84073;-63
2022/01/25 03:57:07;;;;;;;10.80;7.55;;;;;;;;;;5066525;27;83480;-62
2022/01/25 03:59:34;;;;;;;8.25;7.20;;;;;;;;;;5049632;27;82142;-63
2022/01/25 04:02:01;;;;;;;9.75;6.57;;;;;;;;;;5065882;27;81927;-63
2022/01/25 04:04:30;;;;;;;8.55;6.57;;;;;;;;;;5067608;27;81895;-63
2022/01/25 04:06:57;;;;;;;7.10;6.22;;;;;;;;;;5049576;27;82182;-62
2022/01/25 04:09:24;;;;;;;11.05;7.47;;;;;;;;;;5066331;27;81752;-63
2022/01/25 04:11:51;;;;;;;8.57;6.55;;;;;;;;;;5049546;27;81207;-63
2022/01/25 04:14:18;;;;;;;9.23;6.90;;;;;;;;;;5067529;27;83038;-63
2022/01/25 04:17:00;;;;;;;13.25;8.82;;;;;;;;;;5049330;27;82505;-63
2022/01/25 04:27:23;;;;;;;9.50;6.68;;;;;;;;;;5066143;27;82653;-62
2022/01/25 04:29:51;;;;;;;8.75;6.85;;;;;;;;;;5066845;27;82891;-62
2022/01/25 04:32:19;;;;;;;8.43;6.50;;;;;;;;;;5049375;27;81936;-63
2022/01/25 04:35:08;;;;;;;9.20;5.80;;;;;;;;;;5048484;27;82809;-62
2022/01/25 04:49:05;;;;;;;8.27;6.55;;;;;;;;;;5065696;27;83119;-63
2022/01/25 04:51:58;;;;;;;11.20;7.10;;;;;;;;;;5061939;27;82172;-64
2022/01/25 04:59:48;;;;;;;8.88;6.57;;;;;;;;;;5066915;27;82703;-63
2022/01/25 05:05:18;;;;;;;11.23;7.18;;;;;;;;;;5042762;27;81822;-63
2022/01/25 05:10:13;;;;;;;10.70;7.43;;;;;;;;;;5066262;27;81763;-63
2022/01/25 05:12:48;;;;;;;10.20;7.18;;;;;;;;;;5065994;27;82801;-62
2022/01/25 05:16:00;;;;;;;12.52;7.25;;;;;;;;;;5066008;27;81930;-62
2022/01/25 05:18:36;;;;;;;8.38;6.25;;;;;;;;;;5066335;27;82704;-63
2022/01/25 05:23:49;;;;;;;11.88;8.48;;;;;;;;;;5065452;27;81848;-62
2022/01/25 05:26:15;;;;;;;10.55;7.53;;;;;;;;;;5065446;27;81893;-64
2022/01/25 05:28:43;;;;;;;6.75;5.80;;;;;;;;;;5064825;27;82830;-63
2022/01/25 05:31:10;;;;;;;10.48;6.93;;;;;;;;;;5066498;27;84127;-63
2022/01/25 05:33:37;;;;;;;11.18;7.53;;;;;;;;;;5066206;27;82103;-63
2022/01/25 05:36:04;;;;;;;8.25;6.30;;;;;;;;;;5065093;27;81912;-62
2022/01/25 05:38:31;;;;;;;9.15;6.55;;;;;;;;;;5063861;27;83845;-63
2022/01/25 05:41:00;;;;;;;9.30;7.30;;;;;;;;;;5048248;27;83873;-62
2022/01/25 05:46:13;;;;;;;11.13;6.78;;;;;;;;;;5066178;27;82175;-62
2022/01/25 05:48:40;;;;;;;9.82;7.30;;;;;;;;;;5064280;27;83311;-62
2022/01/25 05:51:07;;;;;;;12.60;7.35;;;;;;;;;;5066099;27;82531;-62
2022/01/25 05:53:35;;;;;;;8.32;6.05;;;;;;;;;;5065594;27;82397;-62
2022/01/25 05:56:02;;;;;;;9.65;6.43;;;;;;;;;;5064809;27;81080;-62
2022/01/25 05:58:28;;;;;;;12.93;8.57;;;;;;;;;;5065456;27;83265;-63
2022/01/25 06:00:56;;;;;;;9.48;7.10;;;;;;;;;;5063922;27;82508;-62
2022/01/25 06:03:23;;;;;;;9.05;6.95;;;;;;;;;;5065303;27;82855;-62
2022/01/25 06:05:50;;;;;;;10.80;5.68;;;;;;;;;;5046041;27;81964;-62
2022/01/25 06:08:17;;;;;;;12.88;6.70;;;;;;;;;;5065600;27;81778;-62
2022/01/25 06:10:44;;;;;;;14.27;8.00;;;;;;;;;;5061501;27;83242;-61
2022/01/25 06:13:11;;;;;;;13.48;8.65;;;;;;;;;;5061751;27;82369;-63
2022/01/25 06:15:39;;;;;;;10.80;8.18;;;;;;;;;;5064082;27;81975;-62
2022/01/25 06:18:06;;;;;;;12.93;8.35;;;;;;;;;;5063208;27;81881;-62
2022/01/25 06:20:34;;;;;;;13.95;8.48;;;;;;;;;;5047876;27;82775;-62
2022/01/25 06:23:03;;;;;;;14.35;8.70;;;;;;;;;;5064414;27;81877;-62
2022/01/25 06:25:30;;;;;;;12.07;8.25;;;;;;;;;;5063661;27;81923;-62
2022/01/25 06:27:57;;;;;;;12.38;9.10;;;;;;;;;;5046455;27;82774;-63
2022/01/25 06:30:24;;;;;;;13.05;8.48;;;;;;;;;;5065136;27;84370;-62
2022/01/25 06:32:51;;;;;;;13.93;9.40;;;;;;;;;;5047225;27;82167;-62
2022/01/25 06:35:18;;;;;;;22.63;10.82;;;;;;;;;;5064888;27;82560;-62
2022/01/25 06:37:46;;;;;;;13.85;7.70;;;;;;;;;;5064158;27;83276;-62
2022/01/25 06:40:14;;;;;;;15.13;8.70;;;;;;;;;;5063855;27;82415;-62
2022/01/25 06:42:41;;;;;;;14.95;7.63;;;;;;;;;;5063834;27;81929;-61
2022/01/25 06:45:15;;;;;;;19.30;10.48;;;;;;;;;;5065363;27;81166;-63
2022/01/25 06:47:43;;;;;;;16.95;9.30;;;;;;;;;;5064121;27;83189;-62
2022/01/25 06:50:12;;;;;;;15.45;9.32;;;;;;;;;;5064015;27;82503;-61
2022/01/25 06:52:41;;;;;;;15.68;9.13;;;;;;;;;;5064145;27;82721;-61
2022/01/25 06:55:19;;;;;;;14.30;9.00;;;;;;;;;;5064862;27;81924;-61
2022/01/25 06:57:46;;;;;;;31.20;10.90;;;;;;;;;;5064345;27;81773;-62
2022/01/25 07:00:17;;;;;;;16.92;11.02;;;;;;;;;;5064047;27;82426;-62
2022/01/25 07:02:44;;;;;;;17.70;9.40;;;;;;;;;;5062361;27;83462;-62
2022/01/25 07:05:11;;;;;;;15.23;11.52;;;;;;;;;;5064677;27;82215;-62
2022/01/25 07:07:39;;;;;;;28.95;10.38;;;;;;;;;;5063173;27;82898;-64
2022/01/25 07:10:07;;;;;;;20.23;14.05;;;;;;;;;;5043720;27;84398;-64
2022/01/25 07:12:35;;;;;;;23.83;13.57;;;;;;;;;;5061892;27;83228;-63
2022/01/25 07:15:03;;;;;;;26.17;14.07;;;;;;;;;;5060322;27;83265;-63
2022/01/25 07:17:30;;;;;;;23.10;15.02;;;;;;;;;;5061439;27;85307;-62
2022/01/25 07:19:57;;;;;;;24.85;14.63;;;;;;;;;;5060999;27;84406;-63
2022/01/25 07:22:23;;;;;;;22.65;13.43;;;;;;;;;;5061937;27;83698;-63
2022/01/25 07:24:50;;;;;;;19.00;12.57;;;;;;;;;;5062608;27;82461;-63
2022/01/25 07:27:19;;;;;;;17.48;12.50;;;;;;;;;;5061668;27;84060;-64
2022/01/25 07:29:46;;;;;;;19.40;13.00;;;;;;;;;;5062235;27;83432;-62
2022/01/25 07:32:13;;;;;;;19.02;13.73;;;;;;;;;;5044904;27;84877;-62
2022/01/25 07:34:45;;;;;;;22.50;13.55;;;;;;;;;;5046647;27;82546;-63
2022/01/25 07:37:28;;;;;;;25.48;15.13;;;;;;;;;;5061768;27;83141;-63
2022/01/25 07:40:03;;;;;;;22.10;13.30;;;;;;;;;;5062310;27;83349;-63
2022/01/25 07:42:36;;;;;;;28.83;13.02;;;;;;;;;;5061763;27;83836;-63
2022/01/25 07:45:11;;;;;;;20.50;11.98;;;;;;;;;;5062424;27;82473;-61
2022/01/25 07:47:39;;;;;;;20.33;13.57;;;;;;;;;;5061765;27;82752;-61
2022/01/25 07:50:08;;;;;;;14.75;11.25;;;;;;;;;;5062838;27;84311;-62
2022/01/25 07:52:38;;;;;;;21.63;12.20;;;;;;;;;;5063228;27;83028;-62
2022/01/25 07:55:06;;;;;;;23.55;13.20;;;;;;;;;;5044638;27;82616;-62
2022/01/25 07:57:33;;;;;;;20.13;12.05;;;;;;;;;;5061851;27;82562;-62
2022/01/25 08:00:00;;;;;;;18.23;12.35;;;;;;;;;;5044612;27;83099;-63
2022/01/25 08:02:40;;;;;;;19.13;11.43;;;;;;;;;;5062304;27;83307;-64
2022/01/25 08:05:41;;;;;;;19.77;12.10;;;;;;;;;;4979593;28;82542;-63
2022/01/25 08:08:33;;;;;;;16.33;11.27;;;;;;;;;;4959714;28;84140;-63
2022/01/25 08:11:12;;;;;;;21.52;11.18;;;;;;;;;;4979677;28;85551;-62
2022/01/25 08:14:11;;;;;;;20.83;11.02;;;;;;;;;;4966420;28;84630;-63
2022/01/25 08:16:52;;;;;;;18.40;12.20;;;;;;;;;;4980013;28;83003;-63
2022/01/25 08:19:21;;;;;;;18.42;13.13;;;;;;;;;;4972581;28;83482;-62
2022/01/25 08:22:01;;;;;;;21.85;11.30;;;;;;;;;;4979918;28;84754;-62
2022/01/25 08:24:36;;;;;;;19.40;10.82;;;;;;;;;;4979194;28;84902;-61
2022/01/25 08:27:22;;;;;;;16.08;11.98;;;;;;;;;;4940793;28;82660;-62
2022/01/25 08:30:11;;;;;;;16.20;11.35;;;;;;;;;;4983103;28;84430;-62
2022/01/25 08:32:55;;;;;;;13.80;10.88;;;;;;;;;;4924401;28;83566;-65
2022/01/25 08:35:37;;;;;;;16.80;11.15;;;;;;;;;;4910181;28;83928;-62
2022/01/25 08:38:22;;;;;;;17.15;11.02;;;;;;;;;;4898030;28;82596;-62
2022/01/25 08:41:13;;;;;;;19.65;12.57;;;;;;;;;;4911494;28;85207;-63
2022/01/25 08:44:11;;;;;;;15.95;9.85;;;;;;;;;;4923617;28;85790;-63
2022/01/25 08:46:55;;;;;;;14.77;8.80;;;;;;;;;;4877335;28;85079;-62
2022/01/25 08:49:36;;;;;;;13.48;9.23;;;;;;;;;;4925364;28;81972;-62
2022/01/25 08:52:17;;;;;;;15.40;11.43;;;;;;;;;;4872085;28;83083;-62
2022/01/25 08:55:10;;;;;;;16.70;9.68;;;;;;;;;;4885350;28;83954;-62
2022/01/25 08:57:40;;;;;;;14.75;10.45;;;;;;;;;;4885987;28;83834;-62
2022/01/25 09:00:23;;;;;;;12.82;9.52;;;;;;;;;;4886415;28;82616;-63
2022/01/25 09:02:50;;;;;;;15.02;10.70;;;;;;;;;;4869894;28;83444;-62
2022/01/25 09:05:18;;;;;;;18.40;11.43;;;;;;;;;;4901253;28;83536;-62
2022/01/25 09:07:48;;;;;;;15.07;10.55;;;;;;;;;;4923661;28;84557;-62
2022/01/25 09:10:15;;;;;;;19.52;12.25;;;;;;;;;;4966757;28;82673;-62
2022/01/25 09:12:41;;;;;;;14.05;10.60;;;;;;;;;;4986132;28;82441;-62
2022/01/25 09:15:08;;;;;;;16.92;11.68;;;;;;;;;;4986246;28;82592;-62
2022/01/25 09:17:35;;;;;;;13.48;11.00;;;;;;;;;;5047928;27;83191;-62
2022/01/25 09:20:04;;;;;;;12.85;9.57;;;;;;;;;;5064260;27;82365;-62
2022/01/25 09:22:31;;;;;;;18.20;11.77;;;;;;;;;;5066422;27;83145;-62
2022/01/25 09:25:18;;;;;;;18.00;12.25;;;;;;;;;;5063474;27;83707;-62
2022/01/25 09:27:47;;;;;;;14.20;9.57;;;;;;;;;;5064096;27;84925;-62
2022/01/25 09:30:14;;;;;;;17.63;10.95;;;;;;;;;;5066041;27;81923;-63
2022/01/25 09:32:41;;;;;;;17.73;11.13;;;;;;;;;;5047531;27;83669;-62
2022/01/25 09:35:08;;;;;;;14.73;10.63;;;;;;;;;;5050785;27;83923;-62
2022/01/25 09:37:35;;;;;;;15.90;10.77;;;;;;;;;;5069156;27;82450;-63
2022/01/25 09:40:02;;;;;;;16.70;10.90;;;;;;;;;;5069585;27;82893;-62
2022/01/25 09:42:30;;;;;;;16.67;10.95;;;;;;;;;;5067237;27;84224;-63
2022/01/25 09:44:58;;;;;;;16.20;10.52;;;;;;;;;;5069126;27;84330;-63
2022/01/25 09:47:25;;;;;;;20.83;11.45;;;;;;;;;;5067603;27;83320;-62
2022/01/25 09:49:52;;;;;;;17.90;11.50;;;;;;;;;;5068069;27;82494;-63
2022/01/25 09:52:19;;;;;;;15.13;10.73;;;;;;;;;;5067780;27;83640;-63
2022/01/25 09:54:58;;;;;;;18.08;12.80;;;;;;;;;;5065143;27;83807;-62
2022/01/25 09:57:25;;;;;;;16.35;11.50;;;;;;;;;;5063746;27;84478;-62
2022/01/25 09:59:52;;;;;;;14.95;11.27;;;;;;;;;;5064751;27;82953;-62
2022/01/25 10:02:43;;;;;;;19.67;12.07;;;;;;;;;;5064865;27;82935;-62
2022/01/25 10:05:36;;;;;;;13.98;10.20;;;;;;;;;;5064391;27;83429;-62
2022/01/25 10:08:06;;;;;;;14.38;9.55;;;;;;;;;;5036484;27;83646;-63
2022/01/25 10:10:39;;;;;;;16.17;11.55;;;;;;;;;;5062676;27;81125;-62
2022/01/25 10:13:17;;;;;;;18.33;11.30;;;;;;;;;;5064193;27;82962;-63
2022/01/25 10:15:45;;;;;;;15.75;10.65;;;;;;;;;;5061239;27;85183;-62
2022/01/25 10:18:19;;;;;;;14.70;10.63;;;;;;;;;;5055247;27;83795;-63
2022/01/25 10:20:49;;;;;;;18.98;11.98;;;;;;;;;;5063308;27;82672;-63
2022/01/25 10:23:25;;;;;;;15.95;10.75;;;;;;;;;;5051510;27;83658;-62
2022/01/25 10:25:53;;;;;;;19.52;12.15;;;;;;;;;;5059971;27;83834;-63
2022/01/25 10:28:27;;;;;;;16.58;10.73;;;;;;;;;;5060783;27;84048;-62
2022/01/25 10:30:56;;;;;;;17.17;11.02;;;;;;;;;;5060551;27;82896;-62
2022/01/25 10:33:28;;;;;;;24.08;13.18;;;;;;;;;;5063541;27;82547;-63
2022/01/25 10:35:58;;;;;;;17.83;11.80;;;;;;;;;;5061707;27;83486;-63
2022/01/25 10:38:31;;;;;;;17.23;10.90;;;;;;;;;;5064340;27;83364;-62
2022/01/25 10:41:06;;;;;;;13.60;9.90;;;;;;;;;;5064044;27;83014;-63
2022/01/25 10:43:34;;;;;;;15.40;10.73;;;;;;;;;;5064304;27;83590;-63
2022/01/25 10:46:08;;;;;;;19.52;11.13;;;;;;;;;;5059960;27;83568;-63
2022/01/25 10:48:36;;;;;;;17.88;11.07;;;;;;;;;;5064394;27;83129;-63
2022/01/25 10:51:09;;;;;;;14.68;11.10;;;;;;;;;;5062945;27;82440;-63
2022/01/25 10:53:37;;;;;;;15.43;11.60;;;;;;;;;;5062521;27;82638;-63
2022/01/25 10:56:05;;;;;;;17.95;10.95;;;;;;;;;;5062402;27;83588;-63
2022/01/25 10:58:37;;;;;;;15.63;11.07;;;;;;;;;;5064115;27;83120;-63
2022/01/25 11:01:05;;;;;;;16.65;10.68;;;;;;;;;;5063118;27;82427;-63
2022/01/25 11:03:40;;;;;;;15.38;11.90;;;;;;;;;;5063715;27;82867;-63
2022/01/25 11:06:15;;;;;;;16.95;10.68;;;;;;;;;;5064007;27;82451;-63
2022/01/25 11:08:46;;;;;;;16.08;11.60;;;;;;;;;;5063339;27;83639;-63
2022/01/25 11:11:29;;;;;;;16.30;10.15;;;;;;;;;;5063999;27;82438;-64
2022/01/25 11:14:00;;;;;;;19.05;11.00;;;;;;;;;;5063412;27;84436;-63
2022/01/25 11:16:27;;;;;;;20.73;11.98;;;;;;;;;;5063571;27;83683;-63
2022/01/25 11:18:57;;;;;;;14.02;10.68;;;;;;;;;;5045606;27;83070;-63
2022/01/25 11:21:24;;;;;;;15.18;9.68;;;;;;;;;;5045987;27;82586;-63
2022/01/25 11:23:52;;;;;;;17.38;10.93;;;;;;;;;;5062722;27;83274;-63
2022/01/25 11:26:19;;;;;;;16.45;11.85;;;;;;;;;;5061711;27;83065;-63
2022/01/25 11:28:47;;;;;;;16.95;12.40;;;;;;;;;;5063516;27;84661;-63
2022/01/25 11:31:20;;;;;;;13.68;10.48;;;;;;;;;;5061899;27;82582;-64
2022/01/25 11:33:49;;;;;;;13.43;9.38;;;;;;;;;;5063282;27;83753;-63
2022/01/25 11:36:16;;;;;;;14.75;10.63;;;;;;;;;;5062663;27;84344;-63
2022/01/25 11:38:49;;;;;;;15.45;10.52;;;;;;;;;;5063819;27;82749;-63
2022/01/25 11:41:19;;;;;;;17.98;10.32;;;;;;;;;;5063469;27;82718;-63
2022/01/25 11:44:07;;;;;;;14.57;10.45;;;;;;;;;;5066686;27;82625;-64
2022/01/25 11:46:37;;;;;;;13.70;10.07;;;;;;;;;;5080377;27;83519;-62
2022/01/25 11:49:10;;;;;;;13.65;8.63;;;;;;;;;;5067419;27;83157;-63
2022/01/25 11:51:37;;;;;;;15.30;9.70;;;;;;;;;;5063393;27;81113;-63
2022/01/25 11:54:04;;;;;;;12.50;8.80;;;;;;;;;;5062692;27;82651;-63
2022/01/25 11:56:31;;;;;;;14.60;10.15;;;;;;;;;;5063692;27;82256;-63
2022/01/25 11:59:00;;;;;;;18.13;9.63;;;;;;;;;;5062163;27;82789;-63
2022/01/25 12:01:28;;;;;;;15.13;10.15;;;;;;;;;;5062806;27;82792;-63
2022/01/25 12:04:04;;;;;;;17.40;10.55;;;;;;;;;;5066713;27;82570;-64
2022/01/25 12:06:38;;;;;;;14.75;10.65;;;;;;;;;;5066082;27;83581;-61
2022/01/25 12:09:31;;;;;;;14.60;10.13;;;;;;;;;;5066389;27;85021;-63
2022/01/25 12:12:01;;;;;;;12.05;9.48;;;;;;;;;;5064590;27;82852;-62
2022/01/25 12:14:33;;;;;;;15.00;10.63;;;;;;;;;;5066007;27;84428;-62
2022/01/25 12:17:03;;;;;;;19.83;11.63;;;;;;;;;;5065874;27;84670;-63
2022/01/25 12:19:32;;;;;;;18.92;13.23;;;;;;;;;;5064278;27;83484;-63
2022/01/25 12:22:26;;;;;;;23.25;14.90;;;;;;;;;;5066317;27;82439;-63
2022/01/25 12:27:40;;;;;;;17.60;13.85;;;;;;;;;;5064608;27;85140;-64
2022/01/25 12:30:38;;;;;;;18.88;15.00;;;;;;;;;;5066558;27;83123;-63
2022/01/25 12:33:15;;;;;;;21.48;15.10;;;;;;;;;;5060491;27;82427;-63
2022/01/25 12:35:54;;;;;;;23.73;14.10;;;;;;;;;;5049352;27;82485;-64
2022/01/25 12:38:27;;;;;;;21.65;15.43;;;;;;;;;;5066079;27;83406;-64
2022/01/25 12:41:08;;;;;;;21.60;15.65;;;;;;;;;;5064154;27;83114;-65
2022/01/25 12:43:40;;;;;;;23.30;13.68;;;;;;;;;;5065049;27;82708;-63
2022/01/25 12:46:13;;;;;;;21.67;14.63;;;;;;;;;;5062495;27;82957;-63
2022/01/25 12:48:46;;;;;;;29.02;13.00;;;;;;;;;;5060899;27;83618;-63
2022/01/25 12:51:17;;;;;;;19.67;13.63;;;;;;;;;;5060193;27;84655;-64
2022/01/25 12:53:46;;;;;;;19.33;12.65;;;;;;;;;;5064459;27;82414;-63
2022/01/25 12:56:16;;;;;;;18.60;14.05;;;;;;;;;;5064341;27;82726;-63
2022/01/25 12:58:47;;;;;;;15.15;11.52;;;;;;;;;;5065324;27;82420;-64
2022/01/25 13:01:16;;;;;;;19.23;12.52;;;;;;;;;;5064596;27;83168;-64
2022/01/25 13:03:52;;;;;;;23.88;12.75;;;;;;;;;;5064258;27;82735;-64
2022/01/25 13:06:46;;;;;;;16.73;11.35;;;;;;;;;;5065903;27;82554;-64
2022/01/25 13:09:24;;;;;;;14.98;10.55;;;;;;;;;;5063467;27;82998;-63
2022/01/25 13:17:19;;;;;;;18.30;11.60;;;;;;;;;;5063908;27;83459;-64
2022/01/25 13:20:02;;;;;;;22.42;14.02;;;;;;;;;;5064167;27;85156;-63
2022/01/25 13:22:35;;;;;;;17.30;12.10;;;;;;;;;;5063809;27;83614;-63
2022/01/25 13:25:20;;;;;;;15.27;10.77;;;;;;;;;;5063641;27;82499;-64
2022/01/25 13:27:49;;;;;;;16.80;9.73;;;;;;;;;;5063837;27;83422;-64
2022/01/25 13:33:05;;;;;;;17.00;10.82;;;;;;;;;;5063610;27;82643;-62
2022/01/25 13:35:35;;;;;;;17.48;11.20;;;;;;;;;;5065539;27;82372;-62
2022/01/25 13:38:09;;;;;;;15.85;10.63;;;;;;;;;;5062882;27;82634;-62
2022/01/25 13:41:03;;;;;;;15.73;11.70;;;;;;;;;;5061886;27;83579;-63
2022/01/25 13:46:11;;;;;;;15.35;10.73;;;;;;;;;;5047266;27;83271;-65
2022/01/25 13:48:40;;;;;;;17.83;11.80;;;;;;;;;;5058635;27;82719;-62
2022/01/25 13:51:12;;;;;;;13.63;9.77;;;;;;;;;;5061898;27;83968;-63
2022/01/25 13:53:40;;;;;;;15.02;10.60;;;;;;;;;;5064878;27;83166;-64
2022/01/25 13:56:11;;;;;;;14.07;10.75;;;;;;;;;;5064441;27;82957;-64
2022/01/25 13:58:46;;;;;;;15.10;11.30;;;;;;;;;;5063111;27;83181;-63
2022/01/25 14:01:13;;;;;;;;;;;;;;;;;;5057381;27;83548;-63
2022/01/25 14:03:52;;;;;;;12.07;9.30;;;;;;;;;;5064781;27;83112;-63
2022/01/25 14:06:26;;;;;;;12.88;10.50;;;;;;;;;;5065039;27;82233;-63
2022/01/25 14:09:00;;;;;;;11.68;9.45;;;;;;;;;;5062653;27;83682;-63
2022/01/25 14:25:52;;;;;;;12.85;9.57;;;;;;;;;;5062935;27;82158;-63
2022/01/25 14:28:24;;;;;;;12.70;9.88;;;;;;;;;;5060562;27;81443;-63
2022/01/25 14:30:53;;;;;;;12.48;10.18;;;;;;;;;;5060837;27;82757;-64
2022/01/25 14:33:25;;;;;;;13.60;10.93;;;;;;;;;;5063319;27;83506;-62
2022/01/25 14:36:05;;;;;;;17.00;9.98;;;;;;;;;;5062122;27;84454;-63
2022/01/25 14:38:38;;;;;;;13.35;10.02;;;;;;;;;;5062892;27;82881;-62
2022/01/25 14:41:14;;;;;;;15.02;10.45;;;;;;;;;;5063190;27;83336;-63
2022/01/25 14:43:47;;;;;;;13.23;9.68;;;;;;;;;;5056922;27;83455;-63
2022/01/25 14:46:20;;;;;;;12.93;8.98;;;;;;;;;;5064600;27;83127;-63
2022/01/25 14:48:56;;;;;;;17.20;10.57;;;;;;;;;;5063672;27;81954;-64
2022/01/25 14:51:35;;;;;;;12.77;9.35;;;;;;;;;;5063347;27;82741;-63
2022/01/25 14:54:03;;;;;;;10.23;7.50;;;;;;;;;;5046759;27;82663;-64
2022/01/25 14:56:46;;;;;;;12.07;9.35;;;;;;;;;;5064884;27;81800;-63
2022/01/25 14:59:28;;;;;;;12.93;9.25;;;;;;;;;;5063618;27;81906;-63
2022/01/25 15:02:01;;;;;;;13.43;10.02;;;;;;;;;;5064326;27;84151;-63
2022/01/25 15:04:36;;;;;;;11.38;9.00;;;;;;;;;;5063794;27;83524;-63
2022/01/25 15:07:22;;;;;;;14.52;9.98;;;;;;;;;;5064730;27;83571;-61
2022/01/25 15:09:58;;;;;;;14.50;10.82;;;;;;;;;;5061859;27;82613;-62
2022/01/25 15:12:40;;;;;;;10.63;8.38;;;;;;;;;;5062880;27;82685;-62
2022/01/25 15:15:15;;;;;;;12.75;9.65;;;;;;;;;;5064454;27;81915;-61
2022/01/25 15:17:43;;;;;;;15.77;10.18;;;;;;;;;;5064641;27;81767;-61
2022/01/25 15:20:12;;;;;;;13.90;11.27;;;;;;;;;;5063261;27;82362;-62
2022/01/25 15:22:41;;;;;;;11.80;9.75;;;;;;;;;;5062491;27;82697;-62
2022/01/25 15:25:10;;;;;;;12.68;9.30;;;;;;;;;;5062307;27;81915;-62
2022/01/25 15:27:37;;;;;;;11.35;9.85;;;;;;;;;;5063522;27;82758;-62
2022/01/25 15:30:06;;;;;;;15.93;9.80;;;;;;;;;;5063383;27;81970;-62
2022/01/25 15:32:33;;;;;;;19.08;11.15;;;;;;;;;;5062994;27;82954;-63
2022/01/25 15:35:00;;;;;;;10.60;8.85;;;;;;;;;;5063570;27;86215;-62
2022/01/25 15:37:27;;;;;;;13.43;9.18;;;;;;;;;;5062183;27;83047;-63
2022/01/25 15:39:54;;;;;;;13.80;9.77;;;;;;;;;;5064183;27;81865;-63
2022/01/25 15:42:24;;;;;;;15.25;11.48;;;;;;;;;;5062801;27;82704;-62
2022/01/25 15:44:52;;;;;;;15.73;10.18;;;;;;;;;;5061664;27;83268;-62
2022/01/25 15:47:19;;;;;;;12.27;10.13;;;;;;;;;;5061979;27;83026;-62
2022/01/25 15:49:48;;;;;;;12.15;8.82;;;;;;;;;;5057668;27;82729;-62
2022/01/25 15:52:16;;;;;;;13.07;8.57;;;;;;;;;;5060500;27;83626;-61
2022/01/25 15:54:43;;;;;;;15.15;9.90;;;;;;;;;;5062818;27;83732;-61
2022/01/25 15:57:11;;;;;;;14.82;10.60;;;;;;;;;;5057450;27;81728;-60
2022/01/25 15:59:39;;;;;;;13.55;9.65;;;;;;;;;;5060525;27;82707;-63
2022/01/25 16:02:14;;;;;;;14.02;11.20;;;;;;;;;;5078583;27;82690;-61
2022/01/25 16:04:44;;;;;;;13.98;9.88;;;;;;;;;;5062120;27;84084;-62
2022/01/25 16:07:22;;;;;;;13.07;10.35;;;;;;;;;;5062789;27;83483;-60
2022/01/25 16:09:54;;;;;;;12.60;9.52;;;;;;;;;;5062086;27;82695;-61
2022/01/25 16:12:22;;;;;;;10.80;8.95;;;;;;;;;;5063273;27;82612;-63
2022/01/25 16:14:49;;;;;;;12.75;9.38;;;;;;;;;;5063912;27;82626;-61
2022/01/25 16:17:17;;;;;;;16.77;10.32;;;;;;;;;;5045045;27;82855;-61
2022/01/25 16:19:44;;;;;;;11.43;10.13;;;;;;;;;;5062927;27;82379;-62
2022/01/25 16:22:11;;;;;;;12.63;9.68;;;;;;;;;;5061518;27;82692;-61
2022/01/25 16:24:38;;;;;;;22.95;17.02;;;;;;;;;;5055253;27;82655;-61
2022/01/25 16:27:05;;;;;;;34.13;25.80;;;;;;;;;;5060389;27;82559;-62
2022/01/25 16:29:33;;;;;;;36.72;26.13;;;;;;;;;;5060019;27;82890;-61
2022/01/25 16:32:02;;;;;;;36.40;25.27;;;;;;;;;;5059151;27;82896;-61
2022/01/25 16:34:29;;;;;;;36.03;25.52;;;;;;;;;;5056944;27;83618;-62
2022/01/25 16:36:56;;;;;;;41.08;30.88;;;;;;;;;;5060972;27;83061;-61
2022/01/25 16:39:25;;;;;;;40.60;28.38;;;;;;;;;;5060044;27;82888;-62
2022/01/25 16:41:52;;;;;;;41.35;29.77;;;;;;;;;;5058338;27;84171;-61
2022/01/25 16:44:20;;;;;;;45.90;30.50;;;;;;;;;;5060269;27;83559;-61
2022/01/25 16:46:47;;;;;;;35.63;27.70;;;;;;;;;;5058003;27;83083;-63
2022/01/25 16:49:14;;;;;;;34.03;25.20;;;;;;;;;;5058662;27;82462;-62
2022/01/25 16:51:42;;;;;;;37.15;25.23;;;;;;;;;;5062219;27;83608;-61
2022/01/25 16:54:09;;;;;;;38.00;26.45;;;;;;;;;;5065160;27;83477;-62
2022/01/25 16:56:36;;;;;;;30.48;23.67;;;;;;;;;;5062601;27;83065;-63
2022/01/25 16:59:07;;;;;;;31.42;23.85;;;;;;;;;;5062779;27;83196;-62
2022/01/25 17:01:35;;;;;;;37.03;24.88;;;;;;;;;;5062939;27;83224;-62
2022/01/25 17:04:06;;;;;;;38.75;23.08;;;;;;;;;;5058668;27;83822;-63
2022/01/25 17:06:33;;;;;;;27.27;19.17;;;;;;;;;;5060661;27;83011;-62
2022/01/25 17:09:00;;;;;;;31.88;20.88;;;;;;;;;;5060878;27;84517;-62
2022/01/25 17:11:27;;;;;;;27.55;20.60;;;;;;;;;;5060395;27;83879;-63